Main page
METAR-TAF:

METAR-TAF

Airports :

Morón de la Frontera, Spain

Morón Air Base

latitude: 37-09N, longitude: 005-37W, elevation: 87 m

Current weather observation

The report was made 12 minutes ago, at 09:00 UTC
Wind 2 kt from variable directions
Temperature 24°C
Humidity 50%
Pressure 1018 hPa
Visibility 10 km or more
no clouds below 1500 m and no cumulonimbus

METAR: LEMO 230900Z VRB02KT CAVOK 24/13 Q1018 NOSIG

Time: 11:12 (09:12 UTC)

Forecast

The report was made 1 hour and 12 minutes ago, at 08:00 UTC
Forecast valid from 23 at 09 UTC to 23 at 18 UTC
Wind 2 kt from variable directions
Visibility 10 km or more
no clouds below 1500 m and no cumulonimbus
Probability 40% :
Temporary
from 23 at 15 UTC to 23 at 18 UTC
Wind 10 kt from the West

TAF: LEMO 230800Z 2309/2318 VRB02KT CAVOK PROB40 TEMPO 2315/2318 27010KT

Weather observations and forecasts of more than 4000 airports (METAR and TAF reports).

The available stations are represented by yellow and red dots on the map.

Hover mouse over dot to see the name of the station.

Then click to see weather observations and forecasts.

To change the map : click on the green buttons with a black cross to zoom in, on the green button with a dash to zoom out, or on the green arrows for adjacent maps.


METAR-TAF: